sensor_id;sensor_type;location;lat;lon;timestamp;P1;durP1;ratioP1;P2;durP2;ratioP2
37241;SDS011;23135;51.078;12.108;2023-05-10T00:01:53;4.65;;;2.53;;
37241;SDS011;23135;51.078;12.108;2023-05-10T00:04:19;9.77;;;2.33;;
37241;SDS011;23135;51.078;12.108;2023-05-10T00:06:45;2.53;;;2.33;;
37241;SDS011;23135;51.078;12.108;2023-05-10T00:09:11;5.43;;;1.85;;
37241;SDS011;23135;51.078;12.108;2023-05-10T00:11:36;4.38;;;1.58;;
37241;SDS011;23135;51.078;12.108;2023-05-10T00:14:02;2.60;;;2.30;;
37241;SDS011;23135;51.078;12.108;2023-05-10T00:16:27;4.57;;;2.30;;
37241;SDS011;23135;51.078;12.108;2023-05-10T00:18:53;5.20;;;2.20;;
37241;SDS011;23135;51.078;12.108;2023-05-10T00:21:19;3.60;;;1.73;;
37241;SDS011;23135;51.078;12.108;2023-05-10T00:23:44;4.35;;;1.85;;
37241;SDS011;23135;51.078;12.108;2023-05-10T00:26:10;4.22;;;2.30;;
37241;SDS011;23135;51.078;12.108;2023-05-10T00:28:35;3.10;;;2.03;;
37241;SDS011;23135;51.078;12.108;2023-05-10T00:31:01;2.70;;;1.77;;
37241;SDS011;23135;51.078;12.108;2023-05-10T00:33:27;2.60;;;1.58;;
37241;SDS011;23135;51.078;12.108;2023-05-10T00:35:52;2.40;;;1.48;;
37241;SDS011;23135;51.078;12.108;2023-05-10T00:38:18;5.45;;;1.90;;
37241;SDS011;23135;51.078;12.108;2023-05-10T00:40:44;4.18;;;2.03;;
37241;SDS011;23135;51.078;12.108;2023-05-10T00:43:09;13.02;;;2.08;;
37241;SDS011;23135;51.078;12.108;2023-05-10T00:45:35;4.55;;;1.63;;
37241;SDS011;23135;51.078;12.108;2023-05-10T00:48:02;8.88;;;2.53;;
37241;SDS011;23135;51.078;12.108;2023-05-10T00:50:28;1.92;;;1.23;;
37241;SDS011;23135;51.078;12.108;2023-05-10T00:52:55;6.95;;;1.75;;
37241;SDS011;23135;51.078;12.108;2023-05-10T00:55:22;2.22;;;1.65;;
37241;SDS011;23135;51.078;12.108;2023-05-10T00:57:48;2.72;;;1.60;;
37241;SDS011;23135;51.078;12.108;2023-05-10T01:00:14;2.85;;;2.15;;
37241;SDS011;23135;51.078;12.108;2023-05-10T01:02:43;3.30;;;1.77;;
37241;SDS011;23135;51.078;12.108;2023-05-10T01:05:10;2.42;;;1.38;;
37241;SDS011;23135;51.078;12.108;2023-05-10T01:07:36;3.28;;;1.80;;
37241;SDS011;23135;51.078;12.108;2023-05-10T01:10:01;4.53;;;1.98;;
37241;SDS011;23135;51.078;12.108;2023-05-10T01:12:27;3.40;;;1.92;;
37241;SDS011;23135;51.078;12.108;2023-05-10T01:14:53;4.13;;;2.25;;
37241;SDS011;23135;51.078;12.108;2023-05-10T01:17:19;9.45;;;1.95;;
37241;SDS011;23135;51.078;12.108;2023-05-10T01:19:46;3.25;;;1.70;;
37241;SDS011;23135;51.078;12.108;2023-05-10T01:25:00;7.00;;;2.47;;
37241;SDS011;23135;51.078;12.108;2023-05-10T01:38:29;5.85;;;1.65;;
37241;SDS011;23135;51.078;12.108;2023-05-10T01:41:19;2.83;;;1.98;;
37241;SDS011;23135;51.078;12.108;2023-05-10T01:46:27;4.97;;;2.38;;
37241;SDS011;23135;51.078;12.108;2023-05-10T01:48:58;4.35;;;2.17;;
37241;SDS011;23135;51.078;12.108;2023-05-10T01:51:26;2.42;;;1.15;;
37241;SDS011;23135;51.078;12.108;2023-05-10T01:54:00;3.90;;;1.75;;
37241;SDS011;23135;51.078;12.108;2023-05-10T01:56:29;1.73;;;1.63;;
37241;SDS011;23135;51.078;12.108;2023-05-10T01:58:58;3.45;;;1.52;;
37241;SDS011;23135;51.078;12.108;2023-05-10T02:01:26;2.95;;;1.95;;
37241;SDS011;23135;51.078;12.108;2023-05-10T02:03:52;5.13;;;1.88;;
37241;SDS011;23135;51.078;12.108;2023-05-10T02:06:19;7.55;;;1.80;;
37241;SDS011;23135;51.078;12.108;2023-05-10T02:08:47;5.07;;;1.38;;
37241;SDS011;23135;51.078;12.108;2023-05-10T02:11:14;2.10;;;1.50;;
37241;SDS011;23135;51.078;12.108;2023-05-10T02:13:40;4.53;;;1.25;;
37241;SDS011;23135;51.078;12.108;2023-05-10T02:16:08;2.83;;;1.77;;
37241;SDS011;23135;51.078;12.108;2023-05-10T02:18:34;1.25;;;0.88;;
37241;SDS011;23135;51.078;12.108;2023-05-10T02:21:02;6.75;;;1.50;;
37241;SDS011;23135;51.078;12.108;2023-05-10T02:23:28;6.05;;;1.83;;
37241;SDS011;23135;51.078;12.108;2023-05-10T02:25:54;2.13;;;1.50;;
37241;SDS011;23135;51.078;12.108;2023-05-10T02:28:22;1.98;;;1.40;;
37241;SDS011;23135;51.078;12.108;2023-05-10T02:30:50;4.53;;;1.20;;
37241;SDS011;23135;51.078;12.108;2023-05-10T02:33:16;1.75;;;1.23;;
37241;SDS011;23135;51.078;12.108;2023-05-10T02:35:43;2.35;;;1.80;;
37241;SDS011;23135;51.078;12.108;2023-05-10T02:38:09;2.47;;;1.63;;
37241;SDS011;23135;51.078;12.108;2023-05-10T02:40:36;2.53;;;1.75;;
37241;SDS011;23135;51.078;12.108;2023-05-10T02:43:03;2.05;;;1.85;;
37241;SDS011;23135;51.078;12.108;2023-05-10T02:45:31;2.67;;;1.60;;
37241;SDS011;23135;51.078;12.108;2023-05-10T02:47:59;3.40;;;1.52;;
37241;SDS011;23135;51.078;12.108;2023-05-10T02:50:28;5.25;;;1.60;;
37241;SDS011;23135;51.078;12.108;2023-05-10T02:52:59;2.28;;;1.92;;
37241;SDS011;23135;51.078;12.108;2023-05-10T02:55:29;2.55;;;1.58;;
37241;SDS011;23135;51.078;12.108;2023-05-10T02:58:00;2.45;;;1.88;;
37241;SDS011;23135;51.078;12.108;2023-05-10T03:00:27;1.83;;;1.27;;
37241;SDS011;23135;51.078;12.108;2023-05-10T03:02:53;1.48;;;1.38;;
37241;SDS011;23135;51.078;12.108;2023-05-10T03:05:19;7.20;;;1.60;;
37241;SDS011;23135;51.078;12.108;2023-05-10T03:07:45;3.53;;;1.50;;
37241;SDS011;23135;51.078;12.108;2023-05-10T03:10:11;2.25;;;1.90;;
37241;SDS011;23135;51.078;12.108;2023-05-10T03:15:19;3.90;;;1.65;;
37241;SDS011;23135;51.078;12.108;2023-05-10T03:17:58;1.85;;;1.42;;
37241;SDS011;23135;51.078;12.108;2023-05-10T03:20:43;5.70;;;2.20;;
37241;SDS011;23135;51.078;12.108;2023-05-10T03:25:46;3.40;;;1.70;;
37241;SDS011;23135;51.078;12.108;2023-05-10T03:28:14;11.00;;;2.22;;
37241;SDS011;23135;51.078;12.108;2023-05-10T03:30:41;5.85;;;1.90;;
37241;SDS011;23135;51.078;12.108;2023-05-10T03:33:08;2.67;;;1.63;;
37241;SDS011;23135;51.078;12.108;2023-05-10T03:35:34;9.35;;;3.20;;
37241;SDS011;23135;51.078;12.108;2023-05-10T03:38:00;2.78;;;2.35;;
37241;SDS011;23135;51.078;12.108;2023-05-10T03:40:26;2.70;;;2.10;;
37241;SDS011;23135;51.078;12.108;2023-05-10T03:42:53;14.00;;;2.40;;
37241;SDS011;23135;51.078;12.108;2023-05-10T03:45:20;31.13;;;3.38;;
37241;SDS011;23135;51.078;12.108;2023-05-10T03:47:45;11.13;;;2.45;;
37241;SDS011;23135;51.078;12.108;2023-05-10T03:50:11;17.40;;;2.75;;
37241;SDS011;23135;51.078;12.108;2023-05-10T03:52:37;8.27;;;2.15;;
37241;SDS011;23135;51.078;12.108;2023-05-10T03:55:04;6.03;;;1.92;;
37241;SDS011;23135;51.078;12.108;2023-05-10T03:57:37;3.30;;;1.42;;
37241;SDS011;23135;51.078;12.108;2023-05-10T04:00:03;4.43;;;1.77;;
37241;SDS011;23135;51.078;12.108;2023-05-10T04:02:29;4.07;;;1.73;;
37241;SDS011;23135;51.078;12.108;2023-05-10T04:04:55;3.42;;;1.77;;
37241;SDS011;23135;51.078;12.108;2023-05-10T04:07:21;6.55;;;1.42;;
37241;SDS011;23135;51.078;12.108;2023-05-10T04:09:47;2.42;;;1.58;;
37241;SDS011;23135;51.078;12.108;2023-05-10T04:12:12;4.50;;;1.98;;
37241;SDS011;23135;51.078;12.108;2023-05-10T04:14:38;3.78;;;1.77;;
37241;SDS011;23135;51.078;12.108;2023-05-10T04:17:03;2.55;;;1.48;;
37241;SDS011;23135;51.078;12.108;2023-05-10T04:19:29;3.47;;;2.03;;
37241;SDS011;23135;51.078;12.108;2023-05-10T04:21:56;1.48;;;1.35;;
37241;SDS011;23135;51.078;12.108;2023-05-10T04:24:21;4.00;;;1.75;;
37241;SDS011;23135;51.078;12.108;2023-05-10T04:26:47;4.88;;;1.05;;
37241;SDS011;23135;51.078;12.108;2023-05-10T04:29:12;22.00;;;3.67;;
37241;SDS011;23135;51.078;12.108;2023-05-10T04:31:38;39.08;;;3.13;;
37241;SDS011;23135;51.078;12.108;2023-05-10T04:34:03;13.60;;;2.17;;
37241;SDS011;23135;51.078;12.108;2023-05-10T04:36:31;4.45;;;2.67;;
37241;SDS011;23135;51.078;12.108;2023-05-10T04:38:58;7.35;;;2.08;;
37241;SDS011;23135;51.078;12.108;2023-05-10T04:41:24;11.38;;;1.90;;
37241;SDS011;23135;51.078;12.108;2023-05-10T04:43:50;5.50;;;1.92;;
37241;SDS011;23135;51.078;12.108;2023-05-10T04:46:16;9.48;;;2.47;;
37241;SDS011;23135;51.078;12.108;2023-05-10T04:48:41;5.28;;;1.33;;
37241;SDS011;23135;51.078;12.108;2023-05-10T04:51:07;10.90;;;2.03;;
37241;SDS011;23135;51.078;12.108;2023-05-10T04:53:32;26.05;;;2.00;;
37241;SDS011;23135;51.078;12.108;2023-05-10T04:55:58;16.25;;;2.67;;
37241;SDS011;23135;51.078;12.108;2023-05-10T04:58:23;15.35;;;3.50;;
37241;SDS011;23135;51.078;12.108;2023-05-10T05:00:49;9.70;;;2.08;;
37241;SDS011;23135;51.078;12.108;2023-05-10T05:03:15;25.05;;;2.55;;
37241;SDS011;23135;51.078;12.108;2023-05-10T05:05:40;11.77;;;1.55;;
37241;SDS011;23135;51.078;12.108;2023-05-10T05:08:06;10.23;;;2.25;;
37241;SDS011;23135;51.078;12.108;2023-05-10T05:10:31;11.95;;;2.00;;
37241;SDS011;23135;51.078;12.108;2023-05-10T05:12:57;13.68;;;1.92;;
37241;SDS011;23135;51.078;12.108;2023-05-10T05:15:22;12.50;;;2.65;;
37241;SDS011;23135;51.078;12.108;2023-05-10T05:17:48;11.63;;;1.70;;
37241;SDS011;23135;51.078;12.108;2023-05-10T05:20:14;19.00;;;2.78;;
37241;SDS011;23135;51.078;12.108;2023-05-10T05:22:39;12.50;;;1.98;;
37241;SDS011;23135;51.078;12.108;2023-05-10T05:25:05;18.00;;;2.63;;
37241;SDS011;23135;51.078;12.108;2023-05-10T05:27:31;10.63;;;2.03;;
37241;SDS011;23135;51.078;12.108;2023-05-10T05:29:57;15.45;;;4.03;;
37241;SDS011;23135;51.078;12.108;2023-05-10T05:32:23;13.02;;;3.33;;
37241;SDS011;23135;51.078;12.108;2023-05-10T05:34:50;9.70;;;3.80;;
37241;SDS011;23135;51.078;12.108;2023-05-10T05:37:16;7.38;;;1.95;;
37241;SDS011;23135;51.078;12.108;2023-05-10T05:39:43;9.77;;;1.77;;
37241;SDS011;23135;51.078;12.108;2023-05-10T05:42:09;2.30;;;1.45;;
37241;SDS011;23135;51.078;12.108;2023-05-10T05:44:35;2.22;;;1.80;;
37241;SDS011;23135;51.078;12.108;2023-05-10T05:47:01;3.80;;;1.55;;
37241;SDS011;23135;51.078;12.108;2023-05-10T05:49:27;5.00;;;1.65;;
37241;SDS011;23135;51.078;12.108;2023-05-10T05:51:53;2.92;;;2.00;;
37241;SDS011;23135;51.078;12.108;2023-05-10T05:54:18;4.35;;;1.60;;
37241;SDS011;23135;51.078;12.108;2023-05-10T05:56:44;2.25;;;1.35;;
37241;SDS011;23135;51.078;12.108;2023-05-10T05:59:09;3.83;;;1.60;;
37241;SDS011;23135;51.078;12.108;2023-05-10T06:01:36;9.13;;;1.80;;
37241;SDS011;23135;51.078;12.108;2023-05-10T06:04:01;3.28;;;0.85;;
37241;SDS011;23135;51.078;12.108;2023-05-10T06:06:27;2.90;;;1.45;;
37241;SDS011;23135;51.078;12.108;2023-05-10T06:08:53;2.40;;;1.27;;
37241;SDS011;23135;51.078;12.108;2023-05-10T06:11:18;8.85;;;1.83;;
37241;SDS011;23135;51.078;12.108;2023-05-10T06:13:45;4.28;;;1.92;;
37241;SDS011;23135;51.078;12.108;2023-05-10T06:16:12;4.50;;;1.10;;
37241;SDS011;23135;51.078;12.108;2023-05-10T06:18:38;3.58;;;1.40;;
37241;SDS011;23135;51.078;12.108;2023-05-10T06:21:03;7.00;;;1.15;;
37241;SDS011;23135;51.078;12.108;2023-05-10T06:23:29;5.65;;;1.85;;
37241;SDS011;23135;51.078;12.108;2023-05-10T06:25:54;4.03;;;1.23;;
37241;SDS011;23135;51.078;12.108;2023-05-10T06:28:20;7.53;;;1.83;;
37241;SDS011;23135;51.078;12.108;2023-05-10T06:30:46;5.65;;;1.63;;
37241;SDS011;23135;51.078;12.108;2023-05-10T06:33:11;3.60;;;1.50;;
37241;SDS011;23135;51.078;12.108;2023-05-10T06:35:37;3.40;;;1.95;;
37241;SDS011;23135;51.078;12.108;2023-05-10T06:38:03;3.88;;;1.38;;
37241;SDS011;23135;51.078;12.108;2023-05-10T06:40:29;3.10;;;1.90;;
37241;SDS011;23135;51.078;12.108;2023-05-10T06:42:55;2.25;;;1.40;;
37241;SDS011;23135;51.078;12.108;2023-05-10T06:45:20;1.60;;;0.95;;
37241;SDS011;23135;51.078;12.108;2023-05-10T06:47:46;2.10;;;1.63;;
37241;SDS011;23135;51.078;12.108;2023-05-10T06:50:12;2.63;;;1.60;;
37241;SDS011;23135;51.078;12.108;2023-05-10T06:52:38;2.65;;;2.15;;
37241;SDS011;23135;51.078;12.108;2023-05-10T06:55:04;5.03;;;1.63;;
37241;SDS011;23135;51.078;12.108;2023-05-10T06:57:30;6.43;;;2.50;;
37241;SDS011;23135;51.078;12.108;2023-05-10T06:59:57;3.70;;;2.38;;
37241;SDS011;23135;51.078;12.108;2023-05-10T07:02:23;6.65;;;1.60;;
37241;SDS011;23135;51.078;12.108;2023-05-10T07:04:49;4.43;;;2.22;;
37241;SDS011;23135;51.078;12.108;2023-05-10T07:07:14;6.20;;;1.48;;
37241;SDS011;23135;51.078;12.108;2023-05-10T07:09:40;2.80;;;1.90;;
37241;SDS011;23135;51.078;12.108;2023-05-10T07:12:06;2.83;;;1.80;;
37241;SDS011;23135;51.078;12.108;2023-05-10T07:14:31;8.40;;;2.38;;
37241;SDS011;23135;51.078;12.108;2023-05-10T07:16:57;4.68;;;2.35;;
37241;SDS011;23135;51.078;12.108;2023-05-10T07:19:23;3.28;;;1.80;;
37241;SDS011;23135;51.078;12.108;2023-05-10T07:21:48;5.40;;;2.38;;
37241;SDS011;23135;51.078;12.108;2023-05-10T07:24:15;5.63;;;2.17;;
37241;SDS011;23135;51.078;12.108;2023-05-10T07:26:41;2.20;;;1.90;;
37241;SDS011;23135;51.078;12.108;2023-05-10T07:29:06;4.97;;;2.35;;
37241;SDS011;23135;51.078;12.108;2023-05-10T07:31:32;6.85;;;2.13;;
37241;SDS011;23135;51.078;12.108;2023-05-10T07:33:57;4.53;;;2.45;;
37241;SDS011;23135;51.078;12.108;2023-05-10T07:36:23;4.63;;;2.72;;
37241;SDS011;23135;51.078;12.108;2023-05-10T07:38:49;4.57;;;2.92;;
37241;SDS011;23135;51.078;12.108;2023-05-10T07:41:14;2.92;;;2.30;;
37241;SDS011;23135;51.078;12.108;2023-05-10T07:43:40;5.85;;;2.40;;
37241;SDS011;23135;51.078;12.108;2023-05-10T07:46:06;3.85;;;3.05;;
37241;SDS011;23135;51.078;12.108;2023-05-10T07:48:31;3.30;;;2.22;;
37241;SDS011;23135;51.078;12.108;2023-05-10T07:50:57;9.40;;;2.60;;
37241;SDS011;23135;51.078;12.108;2023-05-10T07:53:22;6.47;;;2.55;;
37241;SDS011;23135;51.078;12.108;2023-05-10T07:55:52;6.50;;;2.83;;
37241;SDS011;23135;51.078;12.108;2023-05-10T07:58:21;8.25;;;2.75;;
37241;SDS011;23135;51.078;12.108;2023-05-10T08:00:47;7.53;;;2.38;;
37241;SDS011;23135;51.078;12.108;2023-05-10T08:03:14;4.47;;;2.10;;
37241;SDS011;23135;51.078;12.108;2023-05-10T08:05:39;4.25;;;2.53;;
37241;SDS011;23135;51.078;12.108;2023-05-10T08:08:05;8.88;;;3.13;;
37241;SDS011;23135;51.078;12.108;2023-05-10T08:10:31;7.68;;;3.25;;
37241;SDS011;23135;51.078;12.108;2023-05-10T08:12:57;5.45;;;3.10;;
37241;SDS011;23135;51.078;12.108;2023-05-10T08:15:23;6.60;;;2.50;;
37241;SDS011;23135;51.078;12.108;2023-05-10T08:17:50;9.85;;;2.33;;
37241;SDS011;23135;51.078;12.108;2023-05-10T08:20:16;5.10;;;2.83;;
37241;SDS011;23135;51.078;12.108;2023-05-10T08:22:43;10.57;;;3.35;;
37241;SDS011;23135;51.078;12.108;2023-05-10T08:25:12;6.10;;;2.22;;
37241;SDS011;23135;51.078;12.108;2023-05-10T08:27:37;3.08;;;2.50;;
37241;SDS011;23135;51.078;12.108;2023-05-10T08:30:03;5.20;;;3.13;;
37241;SDS011;23135;51.078;12.108;2023-05-10T08:32:29;4.63;;;2.10;;
37241;SDS011;23135;51.078;12.108;2023-05-10T08:34:54;4.93;;;2.70;;
37241;SDS011;23135;51.078;12.108;2023-05-10T08:37:21;6.93;;;3.05;;
37241;SDS011;23135;51.078;12.108;2023-05-10T08:39:47;6.03;;;3.30;;
37241;SDS011;23135;51.078;12.108;2023-05-10T08:42:13;3.22;;;2.72;;
37241;SDS011;23135;51.078;12.108;2023-05-10T08:44:42;7.78;;;3.53;;
37241;SDS011;23135;51.078;12.108;2023-05-10T08:47:08;4.75;;;3.63;;
37241;SDS011;23135;51.078;12.108;2023-05-10T08:49:35;5.40;;;3.28;;
37241;SDS011;23135;51.078;12.108;2023-05-10T08:52:03;9.55;;;3.40;;
37241;SDS011;23135;51.078;12.108;2023-05-10T08:54:33;6.90;;;3.53;;
37241;SDS011;23135;51.078;12.108;2023-05-10T08:56:59;11.65;;;4.68;;
37241;SDS011;23135;51.078;12.108;2023-05-10T08:59:25;6.20;;;3.78;;
37241;SDS011;23135;51.078;12.108;2023-05-10T09:01:51;6.30;;;3.15;;
37241;SDS011;23135;51.078;12.108;2023-05-10T09:04:19;4.75;;;3.83;;
37241;SDS011;23135;51.078;12.108;2023-05-10T09:06:44;9.55;;;4.05;;
37241;SDS011;23135;51.078;12.108;2023-05-10T09:09:10;5.38;;;3.80;;
37241;SDS011;23135;51.078;12.108;2023-05-10T09:11:36;3.72;;;3.35;;
37241;SDS011;23135;51.078;12.108;2023-05-10T09:14:02;5.25;;;2.55;;
37241;SDS011;23135;51.078;12.108;2023-05-10T09:16:28;4.97;;;3.70;;
37241;SDS011;23135;51.078;12.108;2023-05-10T09:18:53;6.80;;;3.53;;
37241;SDS011;23135;51.078;12.108;2023-05-10T09:21:19;9.93;;;3.65;;
37241;SDS011;23135;51.078;12.108;2023-05-10T09:23:45;11.25;;;3.35;;
37241;SDS011;23135;51.078;12.108;2023-05-10T09:26:12;6.95;;;3.35;;
37241;SDS011;23135;51.078;12.108;2023-05-10T09:28:49;4.53;;;3.13;;
37241;SDS011;23135;51.078;12.108;2023-05-10T09:31:19;3.70;;;3.03;;
37241;SDS011;23135;51.078;12.108;2023-05-10T09:33:45;4.13;;;3.58;;
37241;SDS011;23135;51.078;12.108;2023-05-10T09:36:14;4.85;;;3.08;;
37241;SDS011;23135;51.078;12.108;2023-05-10T09:38:50;4.53;;;3.78;;
37241;SDS011;23135;51.078;12.108;2023-05-10T09:43:43;5.18;;;3.53;;
37241;SDS011;23135;51.078;12.108;2023-05-10T09:46:09;3.33;;;2.92;;
37241;SDS011;23135;51.078;12.108;2023-05-10T09:48:39;6.18;;;3.40;;
37241;SDS011;23135;51.078;12.108;2023-05-10T09:51:22;7.22;;;3.65;;
37241;SDS011;23135;51.078;12.108;2023-05-10T09:56:40;4.38;;;3.97;;
37241;SDS011;23135;51.078;12.108;2023-05-10T09:59:07;3.67;;;3.38;;
37241;SDS011;23135;51.078;12.108;2023-05-10T10:01:36;4.10;;;3.40;;
37241;SDS011;23135;51.078;12.108;2023-05-10T10:04:05;5.32;;;3.20;;
37241;SDS011;23135;51.078;12.108;2023-05-10T10:06:36;3.65;;;3.00;;
37241;SDS011;23135;51.078;12.108;2023-05-10T10:09:03;5.70;;;4.07;;
37241;SDS011;23135;51.078;12.108;2023-05-10T10:11:29;4.90;;;3.97;;
37241;SDS011;23135;51.078;12.108;2023-05-10T10:13:54;6.43;;;3.53;;
37241;SDS011;23135;51.078;12.108;2023-05-10T10:16:20;3.75;;;3.45;;
37241;SDS011;23135;51.078;12.108;2023-05-10T10:18:46;4.18;;;3.38;;
37241;SDS011;23135;51.078;12.108;2023-05-10T10:21:13;6.32;;;4.07;;
37241;SDS011;23135;51.078;12.108;2023-05-10T10:23:40;6.60;;;4.25;;
37241;SDS011;23135;51.078;12.108;2023-05-10T10:26:05;5.55;;;3.70;;
37241;SDS011;23135;51.078;12.108;2023-05-10T10:28:51;5.22;;;4.03;;
37241;SDS011;23135;51.078;12.108;2023-05-10T10:31:34;5.68;;;4.25;;
37241;SDS011;23135;51.078;12.108;2023-05-10T10:34:06;6.47;;;4.88;;
37241;SDS011;23135;51.078;12.108;2023-05-10T10:36:39;7.03;;;4.00;;
37241;SDS011;23135;51.078;12.108;2023-05-10T10:39:08;5.43;;;4.50;;
37241;SDS011;23135;51.078;12.108;2023-05-10T10:41:36;7.55;;;4.43;;
37241;SDS011;23135;51.078;12.108;2023-05-10T10:55:10;5.90;;;3.22;;
37241;SDS011;23135;51.078;12.108;2023-05-10T10:57:43;7.90;;;4.35;;
37241;SDS011;23135;51.078;12.108;2023-05-10T11:08:10;5.35;;;4.20;;
37241;SDS011;23135;51.078;12.108;2023-05-10T11:10:37;5.28;;;4.70;;
37241;SDS011;23135;51.078;12.108;2023-05-10T11:13:04;6.20;;;5.13;;
37241;SDS011;23135;51.078;12.108;2023-05-10T11:15:31;5.28;;;4.70;;
37241;SDS011;23135;51.078;12.108;2023-05-10T11:18:23;6.90;;;4.15;;
37241;SDS011;23135;51.078;12.108;2023-05-10T11:20:50;7.22;;;4.65;;
37241;SDS011;23135;51.078;12.108;2023-05-10T11:23:17;5.15;;;4.65;;
37241;SDS011;23135;51.078;12.108;2023-05-10T11:25:44;5.82;;;4.85;;
37241;SDS011;23135;51.078;12.108;2023-05-10T11:28:12;4.57;;;4.18;;
37241;SDS011;23135;51.078;12.108;2023-05-10T11:30:38;4.80;;;4.05;;
37241;SDS011;23135;51.078;12.108;2023-05-10T11:33:05;4.35;;;3.95;;
37241;SDS011;23135;51.078;12.108;2023-05-10T11:35:38;6.47;;;4.80;;
37241;SDS011;23135;51.078;12.108;2023-05-10T11:38:05;5.88;;;4.25;;
37241;SDS011;23135;51.078;12.108;2023-05-10T11:40:35;5.32;;;4.70;;
37241;SDS011;23135;51.078;12.108;2023-05-10T11:43:02;9.50;;;5.53;;
37241;SDS011;23135;51.078;12.108;2023-05-10T11:45:28;7.30;;;5.28;;
37241;SDS011;23135;51.078;12.108;2023-05-10T11:47:55;7.82;;;4.97;;
37241;SDS011;23135;51.078;12.108;2023-05-10T11:50:21;5.32;;;4.78;;
37241;SDS011;23135;51.078;12.108;2023-05-10T11:52:54;8.35;;;5.82;;
37241;SDS011;23135;51.078;12.108;2023-05-10T11:55:21;6.38;;;5.25;;
37241;SDS011;23135;51.078;12.108;2023-05-10T11:57:47;5.57;;;4.38;;
37241;SDS011;23135;51.078;12.108;2023-05-10T12:00:17;5.45;;;4.70;;
37241;SDS011;23135;51.078;12.108;2023-05-10T12:02:43;7.22;;;4.15;;
37241;SDS011;23135;51.078;12.108;2023-05-10T12:05:09;7.07;;;4.35;;
37241;SDS011;23135;51.078;12.108;2023-05-10T12:07:35;11.23;;;4.53;;
37241;SDS011;23135;51.078;12.108;2023-05-10T12:10:11;6.82;;;5.13;;
37241;SDS011;23135;51.078;12.108;2023-05-10T12:12:42;8.82;;;5.15;;
37241;SDS011;23135;51.078;12.108;2023-05-10T12:15:20;6.65;;;5.10;;
37241;SDS011;23135;51.078;12.108;2023-05-10T12:17:47;5.63;;;4.38;;
37241;SDS011;23135;51.078;12.108;2023-05-10T12:20:13;8.05;;;3.60;;
37241;SDS011;23135;51.078;12.108;2023-05-10T12:22:39;3.50;;;3.17;;
37241;SDS011;23135;51.078;12.108;2023-05-10T12:25:05;4.03;;;3.17;;
37241;SDS011;23135;51.078;12.108;2023-05-10T12:27:33;7.47;;;4.78;;
37241;SDS011;23135;51.078;12.108;2023-05-10T12:29:59;4.10;;;3.70;;
37241;SDS011;23135;51.078;12.108;2023-05-10T12:32:46;7.13;;;4.68;;
37241;SDS011;23135;51.078;12.108;2023-05-10T12:35:10;3.38;;;3.00;;
37241;SDS011;23135;51.078;12.108;2023-05-10T12:37:36;6.93;;;3.85;;
37241;SDS011;23135;51.078;12.108;2023-05-10T12:40:05;5.05;;;3.75;;
37241;SDS011;23135;51.078;12.108;2023-05-10T12:42:32;5.57;;;3.40;;
37241;SDS011;23135;51.078;12.108;2023-05-10T12:44:58;4.63;;;4.00;;
37241;SDS011;23135;51.078;12.108;2023-05-10T12:47:24;4.10;;;2.75;;
37241;SDS011;23135;51.078;12.108;2023-05-10T12:49:49;1.13;;;0.05;;
37241;SDS011;23135;51.078;12.108;2023-05-10T12:52:16;0.57;;;0.15;;
37241;SDS011;23135;51.078;12.108;2023-05-10T12:54:41;2.25;;;0.10;;
37241;SDS011;23135;51.078;12.108;2023-05-10T12:57:07;1.60;;;0.15;;
37241;SDS011;23135;51.078;12.108;2023-05-10T12:59:32;4.20;;;1.08;;
37241;SDS011;23135;51.078;12.108;2023-05-10T13:01:58;3.13;;;0.17;;
37241;SDS011;23135;51.078;12.108;2023-05-10T13:04:24;0.90;;;0.32;;
37241;SDS011;23135;51.078;12.108;2023-05-10T13:06:49;1.23;;;0.10;;
37241;SDS011;23135;51.078;12.108;2023-05-10T13:09:15;1.30;;;0.30;;
37241;SDS011;23135;51.078;12.108;2023-05-10T13:11:40;0.47;;;0.17;;
37241;SDS011;23135;51.078;12.108;2023-05-10T13:14:06;0.70;;;0.20;;
37241;SDS011;23135;51.078;12.108;2023-05-10T13:16:32;3.63;;;0.25;;
37241;SDS011;23135;51.078;12.108;2023-05-10T13:18:57;1.38;;;0.10;;
37241;SDS011;23135;51.078;12.108;2023-05-10T13:21:23;3.55;;;0.10;;
37241;SDS011;23135;51.078;12.108;2023-05-10T13:23:50;0.15;;;0.15;;
37241;SDS011;23135;51.078;12.108;2023-05-10T13:26:15;0.63;;;0.08;;
37241;SDS011;23135;51.078;12.108;2023-05-10T13:28:41;2.00;;;0.38;;
37241;SDS011;23135;51.078;12.108;2023-05-10T13:31:07;0.10;;;0.10;;
37241;SDS011;23135;51.078;12.108;2023-05-10T13:33:32;1.08;;;0.28;;
37241;SDS011;23135;51.078;12.108;2023-05-10T13:35:58;2.47;;;0.10;;
37241;SDS011;23135;51.078;12.108;2023-05-10T13:38:23;3.75;;;0.20;;
37241;SDS011;23135;51.078;12.108;2023-05-10T13:40:49;1.75;;;1.00;;
37241;SDS011;23135;51.078;12.108;2023-05-10T13:43:17;2.63;;;0.65;;
37241;SDS011;23135;51.078;12.108;2023-05-10T13:45:43;0.60;;;0.20;;
37241;SDS011;23135;51.078;12.108;2023-05-10T13:48:09;1.10;;;0.55;;
37241;SDS011;23135;51.078;12.108;2023-05-10T13:50:34;0.50;;;0.35;;
37241;SDS011;23135;51.078;12.108;2023-05-10T13:53:00;1.83;;;0.60;;
37241;SDS011;23135;51.078;12.108;2023-05-10T13:55:25;1.55;;;0.20;;
37241;SDS011;23135;51.078;12.108;2023-05-10T13:57:51;1.92;;;0.50;;
37241;SDS011;23135;51.078;12.108;2023-05-10T14:00:16;0.55;;;0.32;;
37241;SDS011;23135;51.078;12.108;2023-05-10T14:02:42;0.10;;;0.00;;
37241;SDS011;23135;51.078;12.108;2023-05-10T14:05:08;1.08;;;0.00;;
37241;SDS011;23135;51.078;12.108;2023-05-10T14:07:33;20.63;;;0.75;;
37241;SDS011;23135;51.078;12.108;2023-05-10T14:09:59;0.08;;;0.00;;
37241;SDS011;23135;51.078;12.108;2023-05-10T14:12:25;0.50;;;0.00;;
37241;SDS011;23135;51.078;12.108;2023-05-10T14:14:50;1.45;;;0.10;;
37241;SDS011;23135;51.078;12.108;2023-05-10T14:17:17;0.82;;;0.10;;
37241;SDS011;23135;51.078;12.108;2023-05-10T14:19:42;3.78;;;0.10;;
37241;SDS011;23135;51.078;12.108;2023-05-10T14:22:08;0.60;;;0.03;;
37241;SDS011;23135;51.078;12.108;2023-05-10T14:24:34;1.05;;;0.03;;
37241;SDS011;23135;51.078;12.108;2023-05-10T14:26:59;0.50;;;0.20;;
37241;SDS011;23135;51.078;12.108;2023-05-10T14:29:25;0.95;;;0.17;;
37241;SDS011;23135;51.078;12.108;2023-05-10T14:31:51;1.35;;;0.20;;
37241;SDS011;23135;51.078;12.108;2023-05-10T14:34:17;1.92;;;0.10;;
37241;SDS011;23135;51.078;12.108;2023-05-10T14:36:42;3.60;;;0.30;;
37241;SDS011;23135;51.078;12.108;2023-05-10T14:39:08;3.35;;;0.55;;
37241;SDS011;23135;51.078;12.108;2023-05-10T14:41:35;3.53;;;0.73;;
37241;SDS011;23135;51.078;12.108;2023-05-10T14:44:00;0.45;;;0.00;;
37241;SDS011;23135;51.078;12.108;2023-05-10T14:46:28;0.10;;;0.10;;
37241;SDS011;23135;51.078;12.108;2023-05-10T14:48:54;0.00;;;0.00;;
37241;SDS011;23135;51.078;12.108;2023-05-10T14:51:20;0.00;;;0.00;;
37241;SDS011;23135;51.078;12.108;2023-05-10T14:53:47;1.30;;;0.00;;
37241;SDS011;23135;51.078;12.108;2023-05-10T14:56:14;0.10;;;0.00;;
37241;SDS011;23135;51.078;12.108;2023-05-10T14:58:39;0.73;;;0.10;;
37241;SDS011;23135;51.078;12.108;2023-05-10T15:01:05;0.25;;;0.15;;
37241;SDS011;23135;51.078;12.108;2023-05-10T15:03:30;0.10;;;0.10;;
37241;SDS011;23135;51.078;12.108;2023-05-10T15:05:56;0.55;;;0.00;;
37241;SDS011;23135;51.078;12.108;2023-05-10T15:08:22;0.20;;;0.13;;
37241;SDS011;23135;51.078;12.108;2023-05-10T15:10:51;0.98;;;0.00;;
37241;SDS011;23135;51.078;12.108;2023-05-10T15:13:17;3.30;;;0.00;;
37241;SDS011;23135;51.078;12.108;2023-05-10T15:15:42;4.50;;;0.13;;
37241;SDS011;23135;51.078;12.108;2023-05-10T15:18:08;3.83;;;0.10;;